Dallas, TX - DFW

Everything is bigger in Texas

The Dallas/Fort Worth International Airport is no exception to that statement boasting an amazing 27 square miles of property which makes it the second largest airport in the United States. DFW serves an amazing 260 destinations by over 26 airlines. The largest operation however is the American Airlines/American Eagle brand which operate more than 75% of the passenger share out of the mega hub.

DFW Based Pilots: 27   Miles to DFW: 348289
Flights from DFW: 407   Total Hours: 1831.4
Routes using DFW: 4096   From DFW: 916.31
Total Miles: 706884   Hours To DFW: 915.09
Miles from DFW: 358595   DFW Charts: Click Here
VATSIM METAR: KDFW 012053Z 31007KT 10SM FEW250 23/05 A3004 RMK AO2 SLP167 T02330050 56015
 
         
View More: Click Here
   

 

Earn Your Wings

Interested in joining our DFW hub? Hover for more!

Your journey starts here. Your journey starts now. A whole new experience is at your fingertips.

Like what you see and ready to join the team?

A rewarding and memorable virtual airline experience awaits!